sensor_id;sensor_type;location;lat;lon;timestamp;P1;durP1;ratioP1;P2;durP2;ratioP2
8819;SDS011;4446;50.876;4.736;2023-09-12T00:00:47;11.05;;;7.50;;
8819;SDS011;4446;50.876;4.736;2023-09-12T00:03:14;15.10;;;9.82;;
8819;SDS011;4446;50.876;4.736;2023-09-12T00:05:50;14.93;;;8.35;;
8819;SDS011;4446;50.876;4.736;2023-09-12T00:08:17;11.77;;;8.40;;
8819;SDS011;4446;50.876;4.736;2023-09-12T00:10:46;15.07;;;10.30;;
8819;SDS011;4446;50.876;4.736;2023-09-12T00:13:13;16.55;;;9.68;;
8819;SDS011;4446;50.876;4.736;2023-09-12T00:15:41;12.27;;;8.55;;
8819;SDS011;4446;50.876;4.736;2023-09-12T00:18:08;15.40;;;9.45;;
8819;SDS011;4446;50.876;4.736;2023-09-12T00:20:35;11.80;;;8.18;;
8819;SDS011;4446;50.876;4.736;2023-09-12T00:23:03;12.15;;;8.07;;
8819;SDS011;4446;50.876;4.736;2023-09-12T00:25:30;12.02;;;8.45;;
8819;SDS011;4446;50.876;4.736;2023-09-12T00:27:57;14.38;;;9.57;;
8819;SDS011;4446;50.876;4.736;2023-09-12T00:30:24;15.82;;;9.55;;
8819;SDS011;4446;50.876;4.736;2023-09-12T00:32:53;15.35;;;9.25;;
8819;SDS011;4446;50.876;4.736;2023-09-12T00:35:20;11.52;;;7.43;;
8819;SDS011;4446;50.876;4.736;2023-09-12T00:37:47;12.05;;;8.10;;
8819;SDS011;4446;50.876;4.736;2023-09-12T00:40:14;11.55;;;7.40;;
8819;SDS011;4446;50.876;4.736;2023-09-12T00:42:41;11.52;;;7.53;;
8819;SDS011;4446;50.876;4.736;2023-09-12T00:45:08;10.40;;;7.60;;
8819;SDS011;4446;50.876;4.736;2023-09-12T00:47:36;11.07;;;7.57;;
8819;SDS011;4446;50.876;4.736;2023-09-12T00:50:05;11.68;;;8.05;;
8819;SDS011;4446;50.876;4.736;2023-09-12T00:52:33;14.40;;;9.55;;
8819;SDS011;4446;50.876;4.736;2023-09-12T00:55:03;12.48;;;8.80;;
8819;SDS011;4446;50.876;4.736;2023-09-12T00:57:30;12.98;;;8.15;;
8819;SDS011;4446;50.876;4.736;2023-09-12T01:00:00;15.00;;;9.82;;
8819;SDS011;4446;50.876;4.736;2023-09-12T01:02:36;13.43;;;8.70;;
8819;SDS011;4446;50.876;4.736;2023-09-12T01:05:07;11.70;;;8.60;;
8819;SDS011;4446;50.876;4.736;2023-09-12T01:07:34;11.40;;;8.50;;
8819;SDS011;4446;50.876;4.736;2023-09-12T01:10:03;13.10;;;9.48;;
8819;SDS011;4446;50.876;4.736;2023-09-12T01:12:31;13.63;;;8.98;;
8819;SDS011;4446;50.876;4.736;2023-09-12T01:14:58;12.75;;;8.85;;
8819;SDS011;4446;50.876;4.736;2023-09-12T01:17:25;11.50;;;7.95;;
8819;SDS011;4446;50.876;4.736;2023-09-12T01:19:53;11.38;;;8.38;;
8819;SDS011;4446;50.876;4.736;2023-09-12T01:22:45;13.80;;;9.00;;
8819;SDS011;4446;50.876;4.736;2023-09-12T01:25:28;12.80;;;8.93;;
8819;SDS011;4446;50.876;4.736;2023-09-12T01:28:10;14.43;;;9.15;;
8819;SDS011;4446;50.876;4.736;2023-09-12T01:30:39;12.27;;;9.30;;
8819;SDS011;4446;50.876;4.736;2023-09-12T01:33:08;12.38;;;8.57;;
8819;SDS011;4446;50.876;4.736;2023-09-12T01:35:35;9.95;;;8.13;;
8819;SDS011;4446;50.876;4.736;2023-09-12T01:38:02;11.10;;;8.00;;
8819;SDS011;4446;50.876;4.736;2023-09-12T01:40:31;15.82;;;9.00;;
8819;SDS011;4446;50.876;4.736;2023-09-12T01:43:03;10.80;;;8.02;;
8819;SDS011;4446;50.876;4.736;2023-09-12T01:45:34;12.98;;;7.57;;
8819;SDS011;4446;50.876;4.736;2023-09-12T01:48:03;10.48;;;7.10;;
8819;SDS011;4446;50.876;4.736;2023-09-12T01:50:31;11.93;;;8.57;;
8819;SDS011;4446;50.876;4.736;2023-09-12T01:53:00;11.98;;;7.75;;
8819;SDS011;4446;50.876;4.736;2023-09-12T01:55:28;13.13;;;8.38;;
8819;SDS011;4446;50.876;4.736;2023-09-12T01:57:55;10.38;;;7.35;;
8819;SDS011;4446;50.876;4.736;2023-09-12T02:00:23;12.00;;;7.68;;
8819;SDS011;4446;50.876;4.736;2023-09-12T02:02:51;12.88;;;8.25;;
8819;SDS011;4446;50.876;4.736;2023-09-12T02:05:20;11.35;;;7.97;;
8819;SDS011;4446;50.876;4.736;2023-09-12T02:07:48;10.05;;;7.53;;
8819;SDS011;4446;50.876;4.736;2023-09-12T02:10:15;11.02;;;7.82;;
8819;SDS011;4446;50.876;4.736;2023-09-12T02:12:42;12.13;;;8.48;;
8819;SDS011;4446;50.876;4.736;2023-09-12T02:15:10;13.35;;;8.88;;
8819;SDS011;4446;50.876;4.736;2023-09-12T02:17:37;12.98;;;8.38;;
8819;SDS011;4446;50.876;4.736;2023-09-12T02:20:07;12.90;;;8.63;;
8819;SDS011;4446;50.876;4.736;2023-09-12T02:22:35;10.10;;;7.22;;
8819;SDS011;4446;50.876;4.736;2023-09-12T02:25:02;14.65;;;9.00;;
8819;SDS011;4446;50.876;4.736;2023-09-12T02:27:31;15.35;;;9.02;;
8819;SDS011;4446;50.876;4.736;2023-09-12T02:29:57;15.60;;;8.82;;
8819;SDS011;4446;50.876;4.736;2023-09-12T02:32:24;14.80;;;9.00;;
8819;SDS011;4446;50.876;4.736;2023-09-12T02:34:51;17.20;;;10.00;;
8819;SDS011;4446;50.876;4.736;2023-09-12T02:37:23;15.18;;;9.75;;
8819;SDS011;4446;50.876;4.736;2023-09-12T02:39:50;17.80;;;10.63;;
8819;SDS011;4446;50.876;4.736;2023-09-12T02:42:17;14.98;;;8.98;;
8819;SDS011;4446;50.876;4.736;2023-09-12T02:44:44;14.55;;;8.90;;
8819;SDS011;4446;50.876;4.736;2023-09-12T02:47:11;12.23;;;8.35;;
8819;SDS011;4446;50.876;4.736;2023-09-12T02:49:38;16.38;;;10.57;;
8819;SDS011;4446;50.876;4.736;2023-09-12T02:52:05;16.80;;;9.63;;
8819;SDS011;4446;50.876;4.736;2023-09-12T02:54:33;16.90;;;10.35;;
8819;SDS011;4446;50.876;4.736;2023-09-12T02:57:00;14.68;;;9.05;;
8819;SDS011;4446;50.876;4.736;2023-09-12T02:59:29;14.93;;;9.65;;
8819;SDS011;4446;50.876;4.736;2023-09-12T03:01:56;13.25;;;9.20;;
8819;SDS011;4446;50.876;4.736;2023-09-12T03:04:24;13.00;;;8.48;;
8819;SDS011;4446;50.876;4.736;2023-09-12T03:06:52;15.70;;;9.90;;
8819;SDS011;4446;50.876;4.736;2023-09-12T03:09:19;13.85;;;9.18;;
8819;SDS011;4446;50.876;4.736;2023-09-12T03:11:49;13.00;;;8.73;;
8819;SDS011;4446;50.876;4.736;2023-09-12T03:14:16;14.63;;;9.25;;
8819;SDS011;4446;50.876;4.736;2023-09-12T03:16:43;11.63;;;8.43;;
8819;SDS011;4446;50.876;4.736;2023-09-12T03:19:10;11.40;;;7.25;;
8819;SDS011;4446;50.876;4.736;2023-09-12T03:21:37;15.52;;;8.85;;
8819;SDS011;4446;50.876;4.736;2023-09-12T03:24:05;13.45;;;9.15;;
8819;SDS011;4446;50.876;4.736;2023-09-12T03:26:33;14.23;;;9.00;;
8819;SDS011;4446;50.876;4.736;2023-09-12T03:29:02;12.07;;;8.38;;
8819;SDS011;4446;50.876;4.736;2023-09-12T03:31:29;12.15;;;8.40;;
8819;SDS011;4446;50.876;4.736;2023-09-12T03:33:57;12.65;;;8.57;;
8819;SDS011;4446;50.876;4.736;2023-09-12T03:36:23;9.70;;;7.25;;
8819;SDS011;4446;50.876;4.736;2023-09-12T03:38:51;13.48;;;8.75;;
8819;SDS011;4446;50.876;4.736;2023-09-12T03:41:18;14.82;;;8.43;;
8819;SDS011;4446;50.876;4.736;2023-09-12T03:43:47;12.18;;;8.15;;
8819;SDS011;4446;50.876;4.736;2023-09-12T03:46:15;13.88;;;9.48;;
8819;SDS011;4446;50.876;4.736;2023-09-12T03:48:42;12.80;;;8.98;;
8819;SDS011;4446;50.876;4.736;2023-09-12T03:51:11;13.40;;;8.93;;
8819;SDS011;4446;50.876;4.736;2023-09-12T03:53:38;12.63;;;8.52;;
8819;SDS011;4446;50.876;4.736;2023-09-12T03:56:05;13.55;;;8.32;;
8819;SDS011;4446;50.876;4.736;2023-09-12T03:58:32;14.43;;;9.52;;
8819;SDS011;4446;50.876;4.736;2023-09-12T04:00:59;15.32;;;9.80;;
8819;SDS011;4446;50.876;4.736;2023-09-12T04:03:28;14.77;;;9.10;;
8819;SDS011;4446;50.876;4.736;2023-09-12T04:05:57;12.85;;;8.98;;
8819;SDS011;4446;50.876;4.736;2023-09-12T04:08:24;11.77;;;8.65;;
8819;SDS011;4446;50.876;4.736;2023-09-12T04:10:51;12.60;;;8.32;;
8819;SDS011;4446;50.876;4.736;2023-09-12T04:13:17;15.02;;;10.25;;
8819;SDS011;4446;50.876;4.736;2023-09-12T04:15:44;16.30;;;10.68;;
8819;SDS011;4446;50.876;4.736;2023-09-12T04:18:11;14.95;;;9.60;;
8819;SDS011;4446;50.876;4.736;2023-09-12T04:20:40;14.70;;;10.10;;
8819;SDS011;4446;50.876;4.736;2023-09-12T04:23:07;16.83;;;10.18;;
8819;SDS011;4446;50.876;4.736;2023-09-12T04:25:34;21.08;;;12.93;;
8819;SDS011;4446;50.876;4.736;2023-09-12T04:28:01;15.57;;;10.48;;
8819;SDS011;4446;50.876;4.736;2023-09-12T04:30:28;21.02;;;12.23;;
8819;SDS011;4446;50.876;4.736;2023-09-12T04:32:55;20.48;;;12.10;;
8819;SDS011;4446;50.876;4.736;2023-09-12T04:35:22;22.70;;;12.55;;
8819;SDS011;4446;50.876;4.736;2023-09-12T04:37:51;27.13;;;13.52;;
8819;SDS011;4446;50.876;4.736;2023-09-12T04:40:18;31.42;;;14.43;;
8819;SDS011;4446;50.876;4.736;2023-09-12T04:42:45;29.60;;;14.98;;
8819;SDS011;4446;50.876;4.736;2023-09-12T04:45:12;35.17;;;16.33;;
8819;SDS011;4446;50.876;4.736;2023-09-12T04:47:40;28.50;;;14.27;;
8819;SDS011;4446;50.876;4.736;2023-09-12T04:50:07;31.25;;;15.63;;
8819;SDS011;4446;50.876;4.736;2023-09-12T04:52:36;32.47;;;16.58;;
8819;SDS011;4446;50.876;4.736;2023-09-12T04:55:05;29.65;;;15.20;;
8819;SDS011;4446;50.876;4.736;2023-09-12T04:57:33;32.03;;;16.25;;
8819;SDS011;4446;50.876;4.736;2023-09-12T05:00:00;26.98;;;14.20;;
8819;SDS011;4446;50.876;4.736;2023-09-12T05:02:27;28.30;;;14.27;;
8819;SDS011;4446;50.876;4.736;2023-09-12T05:04:54;35.30;;;17.17;;
8819;SDS011;4446;50.876;4.736;2023-09-12T05:07:21;37.10;;;17.75;;
8819;SDS011;4446;50.876;4.736;2023-09-12T05:09:48;29.83;;;15.07;;
8819;SDS011;4446;50.876;4.736;2023-09-12T05:12:17;31.17;;;15.75;;
8819;SDS011;4446;50.876;4.736;2023-09-12T05:14:44;29.15;;;14.50;;
8819;SDS011;4446;50.876;4.736;2023-09-12T05:17:11;29.85;;;15.57;;
8819;SDS011;4446;50.876;4.736;2023-09-12T05:19:38;29.23;;;15.07;;
8819;SDS011;4446;50.876;4.736;2023-09-12T05:22:06;29.55;;;14.90;;
8819;SDS011;4446;50.876;4.736;2023-09-12T05:24:33;26.25;;;14.50;;
8819;SDS011;4446;50.876;4.736;2023-09-12T05:27:00;30.15;;;15.10;;
8819;SDS011;4446;50.876;4.736;2023-09-12T05:29:29;32.63;;;16.63;;
8819;SDS011;4446;50.876;4.736;2023-09-12T05:31:56;34.25;;;16.33;;
8819;SDS011;4446;50.876;4.736;2023-09-12T05:34:23;28.38;;;14.13;;
8819;SDS011;4446;50.876;4.736;2023-09-12T05:36:50;31.17;;;14.05;;
8819;SDS011;4446;50.876;4.736;2023-09-12T05:39:17;27.27;;;14.27;;
8819;SDS011;4446;50.876;4.736;2023-09-12T05:41:44;29.83;;;14.40;;
8819;SDS011;4446;50.876;4.736;2023-09-12T05:44:11;31.52;;;14.65;;
8819;SDS011;4446;50.876;4.736;2023-09-12T05:46:44;28.55;;;14.55;;
8819;SDS011;4446;50.876;4.736;2023-09-12T05:49:11;27.08;;;13.02;;
8819;SDS011;4446;50.876;4.736;2023-09-12T05:51:38;32.63;;;15.43;;
8819;SDS011;4446;50.876;4.736;2023-09-12T05:54:05;36.45;;;16.50;;
8819;SDS011;4446;50.876;4.736;2023-09-12T05:56:33;37.85;;;16.52;;
8819;SDS011;4446;50.876;4.736;2023-09-12T05:59:00;34.08;;;16.30;;
8819;SDS011;4446;50.876;4.736;2023-09-12T06:01:27;36.47;;;18.00;;
8819;SDS011;4446;50.876;4.736;2023-09-12T06:03:56;31.83;;;15.13;;
8819;SDS011;4446;50.876;4.736;2023-09-12T06:06:23;31.08;;;15.25;;
8819;SDS011;4446;50.876;4.736;2023-09-12T06:08:50;29.77;;;14.82;;
8819;SDS011;4446;50.876;4.736;2023-09-12T06:11:18;34.60;;;16.15;;
8819;SDS011;4446;50.876;4.736;2023-09-12T06:13:45;30.00;;;13.73;;
8819;SDS011;4446;50.876;4.736;2023-09-12T06:16:12;31.02;;;14.77;;
8819;SDS011;4446;50.876;4.736;2023-09-12T06:18:39;27.85;;;14.10;;
8819;SDS011;4446;50.876;4.736;2023-09-12T06:21:08;28.90;;;13.45;;
8819;SDS011;4446;50.876;4.736;2023-09-12T06:23:34;41.33;;;16.63;;
8819;SDS011;4446;50.876;4.736;2023-09-12T06:26:01;34.42;;;15.77;;
8819;SDS011;4446;50.876;4.736;2023-09-12T06:28:29;29.15;;;14.65;;
8819;SDS011;4446;50.876;4.736;2023-09-12T06:30:57;34.75;;;15.65;;
8819;SDS011;4446;50.876;4.736;2023-09-12T06:33:24;37.30;;;16.58;;
8819;SDS011;4446;50.876;4.736;2023-09-12T06:35:51;40.78;;;17.88;;
8819;SDS011;4446;50.876;4.736;2023-09-12T06:38:21;43.28;;;17.70;;
8819;SDS011;4446;50.876;4.736;2023-09-12T06:40:48;36.22;;;16.73;;
8819;SDS011;4446;50.876;4.736;2023-09-12T06:43:16;41.05;;;17.67;;
8819;SDS011;4446;50.876;4.736;2023-09-12T06:45:44;41.17;;;18.67;;
8819;SDS011;4446;50.876;4.736;2023-09-12T06:48:11;44.58;;;19.42;;
8819;SDS011;4446;50.876;4.736;2023-09-12T06:50:38;43.10;;;18.27;;
8819;SDS011;4446;50.876;4.736;2023-09-12T06:53:05;42.90;;;19.02;;
8819;SDS011;4446;50.876;4.736;2023-09-12T06:55:34;43.67;;;18.63;;
8819;SDS011;4446;50.876;4.736;2023-09-12T06:58:01;48.80;;;19.67;;
8819;SDS011;4446;50.876;4.736;2023-09-12T07:00:29;50.80;;;19.92;;
8819;SDS011;4446;50.876;4.736;2023-09-12T07:02:56;50.47;;;21.10;;
8819;SDS011;4446;50.876;4.736;2023-09-12T07:05:23;47.58;;;20.25;;
8819;SDS011;4446;50.876;4.736;2023-09-12T07:07:50;42.85;;;19.33;;
8819;SDS011;4446;50.876;4.736;2023-09-12T07:10:18;58.08;;;22.55;;
8819;SDS011;4446;50.876;4.736;2023-09-12T07:12:46;62.35;;;23.90;;
8819;SDS011;4446;50.876;4.736;2023-09-12T07:15:15;61.22;;;23.58;;
8819;SDS011;4446;50.876;4.736;2023-09-12T07:17:42;54.88;;;22.52;;
8819;SDS011;4446;50.876;4.736;2023-09-12T07:20:10;57.55;;;20.73;;
8819;SDS011;4446;50.876;4.736;2023-09-12T07:22:38;57.00;;;22.02;;
8819;SDS011;4446;50.876;4.736;2023-09-12T07:25:06;53.58;;;21.15;;
8819;SDS011;4446;50.876;4.736;2023-09-12T07:27:36;56.38;;;22.80;;
8819;SDS011;4446;50.876;4.736;2023-09-12T07:30:05;56.08;;;21.45;;
8819;SDS011;4446;50.876;4.736;2023-09-12T07:32:33;61.35;;;23.05;;
8819;SDS011;4446;50.876;4.736;2023-09-12T07:35:00;57.92;;;22.15;;
8819;SDS011;4446;50.876;4.736;2023-09-12T07:37:27;58.80;;;23.13;;
8819;SDS011;4446;50.876;4.736;2023-09-12T07:39:54;56.60;;;23.27;;
8819;SDS011;4446;50.876;4.736;2023-09-12T07:42:22;64.05;;;24.25;;
8819;SDS011;4446;50.876;4.736;2023-09-12T07:44:49;58.50;;;23.42;;
8819;SDS011;4446;50.876;4.736;2023-09-12T07:47:18;43.60;;;18.95;;
8819;SDS011;4446;50.876;4.736;2023-09-12T07:49:45;47.42;;;21.25;;
8819;SDS011;4446;50.876;4.736;2023-09-12T07:52:12;48.20;;;20.98;;
8819;SDS011;4446;50.876;4.736;2023-09-12T07:54:39;38.38;;;19.20;;
8819;SDS011;4446;50.876;4.736;2023-09-12T07:57:06;37.53;;;18.95;;
8819;SDS011;4446;50.876;4.736;2023-09-12T07:59:33;36.53;;;17.38;;
8819;SDS011;4446;50.876;4.736;2023-09-12T08:02:00;30.25;;;17.30;;
8819;SDS011;4446;50.876;4.736;2023-09-12T08:04:29;30.33;;;17.58;;
8819;SDS011;4446;50.876;4.736;2023-09-12T08:06:56;31.23;;;17.10;;
8819;SDS011;4446;50.876;4.736;2023-09-12T08:09:23;30.15;;;16.02;;
8819;SDS011;4446;50.876;4.736;2023-09-12T08:11:50;31.55;;;16.23;;
8819;SDS011;4446;50.876;4.736;2023-09-12T08:14:17;28.95;;;15.23;;
8819;SDS011;4446;50.876;4.736;2023-09-12T08:16:46;27.27;;;15.57;;
8819;SDS011;4446;50.876;4.736;2023-09-12T08:19:13;21.63;;;12.80;;
8819;SDS011;4446;50.876;4.736;2023-09-12T08:21:41;24.08;;;14.10;;
8819;SDS011;4446;50.876;4.736;2023-09-12T08:24:10;20.02;;;11.98;;
8819;SDS011;4446;50.876;4.736;2023-09-12T08:26:38;20.15;;;13.50;;
8819;SDS011;4446;50.876;4.736;2023-09-12T08:29:05;23.65;;;12.15;;
8819;SDS011;4446;50.876;4.736;2023-09-12T08:31:32;20.70;;;12.73;;
8819;SDS011;4446;50.876;4.736;2023-09-12T08:33:59;25.45;;;13.60;;
8819;SDS011;4446;50.876;4.736;2023-09-12T08:36:26;23.20;;;12.38;;
8819;SDS011;4446;50.876;4.736;2023-09-12T08:38:55;23.13;;;12.98;;
8819;SDS011;4446;50.876;4.736;2023-09-12T08:41:22;20.27;;;12.10;;
8819;SDS011;4446;50.876;4.736;2023-09-12T08:43:49;21.77;;;13.23;;
8819;SDS011;4446;50.876;4.736;2023-09-12T08:46:16;17.55;;;10.98;;
8819;SDS011;4446;50.876;4.736;2023-09-12T08:48:44;15.40;;;10.13;;
8819;SDS011;4446;50.876;4.736;2023-09-12T08:51:13;17.75;;;10.13;;
8819;SDS011;4446;50.876;4.736;2023-09-12T08:53:40;21.63;;;11.32;;
8819;SDS011;4446;50.876;4.736;2023-09-12T08:56:09;18.48;;;11.27;;
8819;SDS011;4446;50.876;4.736;2023-09-12T08:58:36;19.73;;;12.00;;
8819;SDS011;4446;50.876;4.736;2023-09-12T09:01:05;17.35;;;10.45;;
8819;SDS011;4446;50.876;4.736;2023-09-12T09:03:36;22.27;;;12.15;;
8819;SDS011;4446;50.876;4.736;2023-09-12T09:06:06;19.70;;;10.68;;
8819;SDS011;4446;50.876;4.736;2023-09-12T09:08:35;17.73;;;11.80;;
8819;SDS011;4446;50.876;4.736;2023-09-12T09:11:03;16.83;;;10.30;;
8819;SDS011;4446;50.876;4.736;2023-09-12T09:13:33;16.92;;;10.90;;
8819;SDS011;4446;50.876;4.736;2023-09-12T09:16:10;18.13;;;13.30;;
8819;SDS011;4446;50.876;4.736;2023-09-12T09:18:54;19.27;;;12.48;;
8819;SDS011;4446;50.876;4.736;2023-09-12T09:21:25;19.52;;;11.05;;
8819;SDS011;4446;50.876;4.736;2023-09-12T09:23:55;16.77;;;10.85;;
8819;SDS011;4446;50.876;4.736;2023-09-12T09:26:22;15.65;;;9.65;;
8819;SDS011;4446;50.876;4.736;2023-09-12T09:29:05;13.85;;;9.50;;
8819;SDS011;4446;50.876;4.736;2023-09-12T09:31:34;15.95;;;10.55;;
8819;SDS011;4446;50.876;4.736;2023-09-12T09:34:03;19.92;;;11.73;;
8819;SDS011;4446;50.876;4.736;2023-09-12T09:36:30;17.08;;;10.32;;
8819;SDS011;4446;50.876;4.736;2023-09-12T09:38:58;15.30;;;9.98;;
8819;SDS011;4446;50.876;4.736;2023-09-12T09:41:26;14.77;;;8.48;;
8819;SDS011;4446;50.876;4.736;2023-09-12T09:43:53;15.02;;;9.43;;
8819;SDS011;4446;50.876;4.736;2023-09-12T09:46:21;11.95;;;8.20;;
8819;SDS011;4446;50.876;4.736;2023-09-12T09:48:49;12.35;;;8.55;;
8819;SDS011;4446;50.876;4.736;2023-09-12T09:51:17;9.18;;;6.25;;
8819;SDS011;4446;50.876;4.736;2023-09-12T09:53:44;13.70;;;8.63;;
8819;SDS011;4446;50.876;4.736;2023-09-12T09:56:13;9.60;;;6.50;;
8819;SDS011;4446;50.876;4.736;2023-09-12T09:58:47;8.75;;;5.88;;
8819;SDS011;4446;50.876;4.736;2023-09-12T10:01:15;13.55;;;7.78;;
8819;SDS011;4446;50.876;4.736;2023-09-12T10:03:46;11.48;;;7.10;;
8819;SDS011;4446;50.876;4.736;2023-09-12T10:06:15;10.13;;;6.75;;
8819;SDS011;4446;50.876;4.736;2023-09-12T10:08:43;13.05;;;7.22;;
8819;SDS011;4446;50.876;4.736;2023-09-12T10:11:15;11.75;;;7.60;;
8819;SDS011;4446;50.876;4.736;2023-09-12T10:13:44;11.25;;;7.22;;
8819;SDS011;4446;50.876;4.736;2023-09-12T10:16:17;8.38;;;6.10;;
8819;SDS011;4446;50.876;4.736;2023-09-12T10:18:49;8.60;;;6.63;;
8819;SDS011;4446;50.876;4.736;2023-09-12T10:21:26;8.30;;;5.82;;
8819;SDS011;4446;50.876;4.736;2023-09-12T10:23:56;7.35;;;5.65;;
8819;SDS011;4446;50.876;4.736;2023-09-12T10:26:25;6.50;;;5.45;;
8819;SDS011;4446;50.876;4.736;2023-09-12T10:28:53;11.82;;;6.63;;
8819;SDS011;4446;50.876;4.736;2023-09-12T10:31:21;7.78;;;5.90;;
8819;SDS011;4446;50.876;4.736;2023-09-12T10:33:51;8.73;;;5.93;;
8819;SDS011;4446;50.876;4.736;2023-09-12T10:36:19;7.82;;;5.40;;
8819;SDS011;4446;50.876;4.736;2023-09-12T10:38:47;6.57;;;5.22;;
8819;SDS011;4446;50.876;4.736;2023-09-12T10:41:17;6.72;;;5.22;;
8819;SDS011;4446;50.876;4.736;2023-09-12T10:43:45;7.07;;;6.05;;
8819;SDS011;4446;50.876;4.736;2023-09-12T10:46:17;6.93;;;5.57;;
8819;SDS011;4446;50.876;4.736;2023-09-12T10:48:46;7.20;;;5.10;;
8819;SDS011;4446;50.876;4.736;2023-09-12T10:51:15;8.23;;;5.20;;
8819;SDS011;4446;50.876;4.736;2023-09-12T10:53:46;5.68;;;4.90;;
8819;SDS011;4446;50.876;4.736;2023-09-12T10:56:16;8.52;;;5.55;;
8819;SDS011;4446;50.876;4.736;2023-09-12T11:01:38;7.15;;;5.47;;
8819;SDS011;4446;50.876;4.736;2023-09-12T11:07:00;5.88;;;5.28;;
8819;SDS011;4446;50.876;4.736;2023-09-12T11:09:27;7.28;;;5.97;;
8819;SDS011;4446;50.876;4.736;2023-09-12T11:11:55;7.22;;;6.35;;
8819;SDS011;4446;50.876;4.736;2023-09-12T11:14:24;6.72;;;5.13;;
8819;SDS011;4446;50.876;4.736;2023-09-12T11:17:12;7.07;;;5.38;;
8819;SDS011;4446;50.876;4.736;2023-09-12T11:19:50;8.52;;;6.13;;
8819;SDS011;4446;50.876;4.736;2023-09-12T11:22:26;5.93;;;5.32;;
8819;SDS011;4446;50.876;4.736;2023-09-12T11:24:56;5.90;;;5.30;;
8819;SDS011;4446;50.876;4.736;2023-09-12T11:27:30;8.02;;;5.93;;
8819;SDS011;4446;50.876;4.736;2023-09-12T11:30:03;7.50;;;5.97;;
8819;SDS011;4446;50.876;4.736;2023-09-12T11:32:31;9.82;;;5.97;;
8819;SDS011;4446;50.876;4.736;2023-09-12T11:35:04;6.68;;;5.65;;
8819;SDS011;4446;50.876;4.736;2023-09-12T11:37:33;8.27;;;7.13;;
8819;SDS011;4446;50.876;4.736;2023-09-12T11:40:02;9.20;;;7.72;;
8819;SDS011;4446;50.876;4.736;2023-09-12T11:42:43;11.32;;;7.35;;
8819;SDS011;4446;50.876;4.736;2023-09-12T11:45:11;8.85;;;7.35;;
8819;SDS011;4446;50.876;4.736;2023-09-12T11:47:39;9.88;;;8.15;;
8819;SDS011;4446;50.876;4.736;2023-09-12T11:50:07;10.10;;;8.38;;
8819;SDS011;4446;50.876;4.736;2023-09-12T11:52:37;8.63;;;6.85;;
8819;SDS011;4446;50.876;4.736;2023-09-12T11:55:04;8.60;;;7.68;;
8819;SDS011;4446;50.876;4.736;2023-09-12T11:57:32;10.80;;;7.78;;
8819;SDS011;4446;50.876;4.736;2023-09-12T12:00:02;10.85;;;7.47;;
8819;SDS011;4446;50.876;4.736;2023-09-12T12:02:33;8.05;;;7.25;;
8819;SDS011;4446;50.876;4.736;2023-09-12T12:05:01;9.88;;;7.57;;
8819;SDS011;4446;50.876;4.736;2023-09-12T12:07:29;7.78;;;6.45;;
8819;SDS011;4446;50.876;4.736;2023-09-12T12:09:58;7.60;;;6.80;;
8819;SDS011;4446;50.876;4.736;2023-09-12T12:12:25;6.60;;;5.95;;
8819;SDS011;4446;50.876;4.736;2023-09-12T12:14:52;8.77;;;6.80;;
8819;SDS011;4446;50.876;4.736;2023-09-12T12:17:19;7.93;;;6.70;;
8819;SDS011;4446;50.876;4.736;2023-09-12T12:19:47;9.40;;;6.90;;
8819;SDS011;4446;50.876;4.736;2023-09-12T12:22:15;7.90;;;7.00;;
8819;SDS011;4446;50.876;4.736;2023-09-12T12:24:45;10.63;;;8.02;;
8819;SDS011;4446;50.876;4.736;2023-09-12T12:27:15;8.38;;;6.90;;
8819;SDS011;4446;50.876;4.736;2023-09-12T12:29:43;7.93;;;6.55;;
8819;SDS011;4446;50.876;4.736;2023-09-12T12:32:14;8.93;;;6.95;;
8819;SDS011;4446;50.876;4.736;2023-09-12T12:34:42;9.00;;;7.07;;
8819;SDS011;4446;50.876;4.736;2023-09-12T12:37:14;8.70;;;6.93;;
8819;SDS011;4446;50.876;4.736;2023-09-12T12:39:42;10.93;;;7.78;;
8819;SDS011;4446;50.876;4.736;2023-09-12T12:42:09;8.10;;;5.70;;
8819;SDS011;4446;50.876;4.736;2023-09-12T12:44:38;8.15;;;7.03;;
8819;SDS011;4446;50.876;4.736;2023-09-12T12:47:06;7.47;;;5.72;;
8819;SDS011;4446;50.876;4.736;2023-09-12T12:49:38;7.53;;;6.05;;
8819;SDS011;4446;50.876;4.736;2023-09-12T12:52:05;8.35;;;6.03;;
8819;SDS011;4446;50.876;4.736;2023-09-12T12:54:35;9.23;;;5.65;;
8819;SDS011;4446;50.876;4.736;2023-09-12T12:57:02;10.15;;;6.45;;
8819;SDS011;4446;50.876;4.736;2023-09-12T12:59:30;6.85;;;5.90;;
8819;SDS011;4446;50.876;4.736;2023-09-12T13:02:02;6.60;;;5.82;;
8819;SDS011;4446;50.876;4.736;2023-09-12T13:04:35;6.47;;;5.88;;
8819;SDS011;4446;50.876;4.736;2023-09-12T13:07:03;8.15;;;6.00;;
8819;SDS011;4446;50.876;4.736;2023-09-12T13:09:30;6.57;;;5.75;;
8819;SDS011;4446;50.876;4.736;2023-09-12T13:11:58;9.40;;;6.10;;
8819;SDS011;4446;50.876;4.736;2023-09-12T13:14:25;8.35;;;7.10;;
8819;SDS011;4446;50.876;4.736;2023-09-12T13:16:56;8.85;;;6.63;;
8819;SDS011;4446;50.876;4.736;2023-09-12T13:19:25;9.38;;;7.63;;
8819;SDS011;4446;50.876;4.736;2023-09-12T13:21:53;7.82;;;5.70;;
8819;SDS011;4446;50.876;4.736;2023-09-12T13:24:20;8.57;;;6.95;;
8819;SDS011;4446;50.876;4.736;2023-09-12T13:26:48;6.75;;;6.03;;
8819;SDS011;4446;50.876;4.736;2023-09-12T13:29:15;7.65;;;6.22;;
8819;SDS011;4446;50.876;4.736;2023-09-12T13:31:42;7.28;;;6.32;;
8819;SDS011;4446;50.876;4.736;2023-09-12T13:34:09;8.45;;;7.43;;
8819;SDS011;4446;50.876;4.736;2023-09-12T13:36:38;7.40;;;6.28;;
8819;SDS011;4446;50.876;4.736;2023-09-12T13:39:06;8.80;;;6.78;;
8819;SDS011;4446;50.876;4.736;2023-09-12T13:41:33;8.38;;;7.38;;
8819;SDS011;4446;50.876;4.736;2023-09-12T13:44:01;11.65;;;7.93;;
8819;SDS011;4446;50.876;4.736;2023-09-12T13:46:28;10.45;;;8.10;;
8819;SDS011;4446;50.876;4.736;2023-09-12T13:48:56;10.93;;;9.30;;
8819;SDS011;4446;50.876;4.736;2023-09-12T13:51:25;11.35;;;9.18;;
8819;SDS011;4446;50.876;4.736;2023-09-12T13:53:54;11.07;;;8.82;;
8819;SDS011;4446;50.876;4.736;2023-09-12T13:56:21;12.10;;;9.23;;
8819;SDS011;4446;50.876;4.736;2023-09-12T13:58:48;10.35;;;8.77;;
8819;SDS011;4446;50.876;4.736;2023-09-12T14:01:16;10.27;;;8.35;;
8819;SDS011;4446;50.876;4.736;2023-09-12T14:03:44;13.18;;;8.55;;
8819;SDS011;4446;50.876;4.736;2023-09-12T14:06:11;13.82;;;9.55;;
8819;SDS011;4446;50.876;4.736;2023-09-12T14:08:38;9.45;;;8.45;;
8819;SDS011;4446;50.876;4.736;2023-09-12T14:11:07;10.05;;;8.38;;
8819;SDS011;4446;50.876;4.736;2023-09-12T14:13:34;10.45;;;7.82;;
8819;SDS011;4446;50.876;4.736;2023-09-12T14:16:01;9.57;;;7.63;;
8819;SDS011;4446;50.876;4.736;2023-09-12T14:18:28;11.77;;;7.25;;
8819;SDS011;4446;50.876;4.736;2023-09-12T14:20:56;7.93;;;6.63;;
8819;SDS011;4446;50.876;4.736;2023-09-12T14:23:23;9.02;;;7.22;;
8819;SDS011;4446;50.876;4.736;2023-09-12T14:25:50;8.10;;;7.10;;
8819;SDS011;4446;50.876;4.736;2023-09-12T14:28:19;8.40;;;6.90;;
8819;SDS011;4446;50.876;4.736;2023-09-12T14:30:46;7.00;;;6.30;;
8819;SDS011;4446;50.876;4.736;2023-09-12T14:33:14;10.02;;;6.97;;
8819;SDS011;4446;50.876;4.736;2023-09-12T14:35:42;8.00;;;6.10;;
8819;SDS011;4446;50.876;4.736;2023-09-12T14:38:10;8.52;;;6.05;;
8819;SDS011;4446;50.876;4.736;2023-09-12T14:40:37;8.27;;;6.32;;
8819;SDS011;4446;50.876;4.736;2023-09-12T14:43:05;7.15;;;6.25;;
8819;SDS011;4446;50.876;4.736;2023-09-12T14:45:34;7.88;;;6.10;;
8819;SDS011;4446;50.876;4.736;2023-09-12T14:48:01;8.85;;;6.25;;
8819;SDS011;4446;50.876;4.736;2023-09-12T14:50:28;8.30;;;5.88;;
8819;SDS011;4446;50.876;4.736;2023-09-12T14:52:56;7.32;;;5.40;;
8819;SDS011;4446;50.876;4.736;2023-09-12T14:55:23;7.10;;;5.65;;
8819;SDS011;4446;50.876;4.736;2023-09-12T14:57:50;8.10;;;5.78;;
8819;SDS011;4446;50.876;4.736;2023-09-12T15:00:19;7.95;;;5.95;;
8819;SDS011;4446;50.876;4.736;2023-09-12T15:02:50;8.02;;;5.53;;
8819;SDS011;4446;50.876;4.736;2023-09-12T15:05:17;9.60;;;5.82;;
8819;SDS011;4446;50.876;4.736;2023-09-12T15:07:44;6.60;;;5.60;;
8819;SDS011;4446;50.876;4.736;2023-09-12T15:10:11;7.55;;;5.43;;
8819;SDS011;4446;50.876;4.736;2023-09-12T15:12:38;8.23;;;5.75;;